Time;durP1;ratioP1;P1;durP2;ratioP2;P2;SDS_P1;SDS_P2;PMS_P1;PMS_P2;Temp;Humidity;BMP_temperature;BMP_pressure;BME280_temperature;BME280_humidity;BME280_pressure;Samples;Min_cycle;Max_cycle;Signal;HPM_P1;HPM_P2
2021/09/18 00:01:02;;;;;;;4.57;2.17;;;;;;;;;;5077648;28;20044;-76
2021/09/18 00:03:30;;;;;;;6.75;2.47;;;;;;;;;;5078240;28;20070;-76
2021/09/18 00:05:56;;;;;;;5.93;2.85;;;;;;;;;;5078178;28;20133;-76
2021/09/18 00:08:21;;;;;;;4.38;2.65;;;;;;;;;;5068816;28;20066;-76
2021/09/18 00:10:47;;;;;;;4.97;2.53;;;;;;;;;;5062620;28;20055;-75
2021/09/18 00:13:12;;;;;;;4.15;2.60;;;;;;;;;;5068669;28;20625;-76
2021/09/18 00:15:39;;;;;;;5.88;2.95;;;;;;;;;;5063508;28;20024;-76
2021/09/18 00:18:04;;;;;;;5.38;2.70;;;;;;;;;;5073425;28;20020;-76
2021/09/18 00:20:30;;;;;;;7.57;2.35;;;;;;;;;;5069936;28;20116;-76
2021/09/18 00:22:57;;;;;;;6.75;2.88;;;;;;;;;;5076044;28;20023;-76
2021/09/18 00:25:23;;;;;;;4.28;2.47;;;;;;;;;;5063318;28;20028;-76
2021/09/18 00:27:48;;;;;;;4.30;2.45;;;;;;;;;;5064724;28;20076;-76
2021/09/18 00:30:14;;;;;;;4.22;2.70;;;;;;;;;;5067925;28;20086;-76
2021/09/18 00:32:40;;;;;;;5.18;3.30;;;;;;;;;;5061209;28;20025;-76
2021/09/18 00:35:06;;;;;;;4.22;2.47;;;;;;;;;;5085048;28;20471;-76
2021/09/18 00:37:31;;;;;;;4.53;2.50;;;;;;;;;;5070259;28;20380;-76
2021/09/18 00:39:57;;;;;;;6.75;2.83;;;;;;;;;;5072722;28;20103;-76
2021/09/18 00:42:22;;;;;;;5.35;2.70;;;;;;;;;;5067416;28;20056;-76
2021/09/18 00:44:50;;;;;;;5.18;2.95;;;;;;;;;;5061287;28;20027;-75
2021/09/18 00:47:16;;;;;;;9.45;2.90;;;;;;;;;;5070012;28;20116;-76
2021/09/18 00:49:41;;;;;;;5.68;2.83;;;;;;;;;;5071542;28;20111;-75
2021/09/18 00:52:07;;;;;;;3.88;2.65;;;;;;;;;;5070840;28;20027;-75
2021/09/18 00:54:33;;;;;;;4.35;2.65;;;;;;;;;;5065366;28;20488;-75
2021/09/18 00:56:59;;;;;;;4.45;2.75;;;;;;;;;;5062876;28;20021;-75
2021/09/18 00:59:25;;;;;;;4.72;2.80;;;;;;;;;;5067471;28;20499;-76
2021/09/18 01:01:52;;;;;;;4.95;2.78;;;;;;;;;;5057677;28;20037;-75
2021/09/18 01:04:17;;;;;;;10.75;3.35;;;;;;;;;;5060241;28;20111;-77
2021/09/18 01:06:43;;;;;;;4.30;2.90;;;;;;;;;;5071213;28;20187;-76
2021/09/18 01:09:09;;;;;;;6.00;2.63;;;;;;;;;;5069997;28;20036;-75
2021/09/18 01:11:35;;;;;;;4.15;2.65;;;;;;;;;;5072191;28;20322;-76
2021/09/18 01:14:01;;;;;;;5.95;3.47;;;;;;;;;;5067815;28;20021;-76
2021/09/18 01:16:26;;;;;;;7.60;2.92;;;;;;;;;;5059206;28;20130;-76
2021/09/18 01:18:52;;;;;;;4.82;2.97;;;;;;;;;;5073366;28;20023;-76
2021/09/18 01:21:19;;;;;;;5.60;2.78;;;;;;;;;;5053056;28;20393;-76
2021/09/18 01:23:45;;;;;;;3.80;2.40;;;;;;;;;;5067219;28;20507;-76
2021/09/18 01:26:11;;;;;;;5.47;2.75;;;;;;;;;;5069689;28;20033;-76
2021/09/18 01:28:41;;;;;;;5.55;3.67;;;;;;;;;;5064561;28;20021;-75
2021/09/18 01:31:08;;;;;;;4.82;2.90;;;;;;;;;;5050533;28;20322;-76
2021/09/18 01:33:34;;;;;;;5.28;2.90;;;;;;;;;;5071751;28;20068;-76
2021/09/18 01:36:00;;;;;;;4.43;2.88;;;;;;;;;;5085383;28;20059;-76
2021/09/18 01:38:26;;;;;;;4.25;2.70;;;;;;;;;;5073870;28;20032;-76
2021/09/18 01:40:51;;;;;;;6.05;2.88;;;;;;;;;;5075088;28;20022;-76
2021/09/18 01:43:17;;;;;;;6.30;2.88;;;;;;;;;;5079933;28;20028;-76
2021/09/18 01:45:43;;;;;;;6.13;2.70;;;;;;;;;;5069713;28;20034;-76
2021/09/18 01:48:11;;;;;;;4.78;3.15;;;;;;;;;;5067753;28;20025;-76
2021/09/18 01:50:51;;;;;;;6.13;3.10;;;;;;;;;;5070692;28;20082;-76
2021/09/18 01:53:19;;;;;;;4.93;2.75;;;;;;;;;;5071892;28;20472;-76
2021/09/18 01:55:46;;;;;;;5.65;3.10;;;;;;;;;;5059509;28;20033;-76
2021/09/18 01:58:12;;;;;;;5.43;3.40;;;;;;;;;;5068894;28;20106;-76
2021/09/18 02:00:40;;;;;;;5.32;2.97;;;;;;;;;;5081899;28;20044;-76
2021/09/18 02:03:06;;;;;;;4.20;2.92;;;;;;;;;;5086325;28;20038;-76
2021/09/18 02:05:32;;;;;;;4.60;2.83;;;;;;;;;;5078957;28;20031;-76
2021/09/18 02:07:58;;;;;;;3.75;2.47;;;;;;;;;;5069833;28;20020;-76
2021/09/18 02:10:26;;;;;;;6.18;3.05;;;;;;;;;;5058896;28;20039;-76
2021/09/18 02:12:51;;;;;;;6.30;2.78;;;;;;;;;;5061067;28;20063;-76
2021/09/18 02:15:21;;;;;;;5.15;2.53;;;;;;;;;;5078568;28;20192;-75
2021/09/18 02:17:47;;;;;;;4.80;2.65;;;;;;;;;;5072981;28;20055;-76
2021/09/18 02:20:15;;;;;;;4.10;2.75;;;;;;;;;;5072511;28;20028;-76
2021/09/18 02:22:42;;;;;;;3.65;2.40;;;;;;;;;;5065670;28;20690;-75
2021/09/18 02:25:09;;;;;;;6.57;2.97;;;;;;;;;;5076886;28;20377;-75
2021/09/18 02:27:34;;;;;;;5.13;2.85;;;;;;;;;;5064137;28;20415;-76
2021/09/18 02:30:00;;;;;;;5.63;3.17;;;;;;;;;;5076873;28;20024;-76
2021/09/18 02:32:26;;;;;;;7.20;2.60;;;;;;;;;;5083997;28;20405;-75
2021/09/18 02:34:52;;;;;;;4.82;2.60;;;;;;;;;;5072794;28;20558;-76
2021/09/18 02:37:17;;;;;;;5.40;2.70;;;;;;;;;;5076630;28;20028;-77
2021/09/18 02:39:43;;;;;;;5.78;2.42;;;;;;;;;;5074988;28;20025;-76
2021/09/18 02:42:09;;;;;;;4.88;2.42;;;;;;;;;;5072624;28;20588;-76
2021/09/18 02:44:34;;;;;;;6.25;2.45;;;;;;;;;;5076546;28;20488;-76
2021/09/18 02:47:00;;;;;;;5.25;2.50;;;;;;;;;;5063213;28;20024;-76
2021/09/18 02:49:26;;;;;;;4.38;2.58;;;;;;;;;;5067528;28;20025;-75
2021/09/18 02:51:51;;;;;;;5.40;2.40;;;;;;;;;;5072159;28;20036;-76
2021/09/18 02:54:17;;;;;;;4.72;2.30;;;;;;;;;;5062135;28;20025;-76
2021/09/18 02:56:43;;;;;;;5.35;2.67;;;;;;;;;;5063046;28;20111;-76
2021/09/18 02:59:09;;;;;;;3.33;2.05;;;;;;;;;;5071727;28;20028;-75
2021/09/18 03:01:36;;;;;;;5.78;2.25;;;;;;;;;;5069396;28;20048;-75
2021/09/18 03:04:02;;;;;;;7.05;2.30;;;;;;;;;;5066123;28;20430;-76
2021/09/18 03:06:28;;;;;;;5.57;2.42;;;;;;;;;;5073707;28;20103;-75
2021/09/18 03:08:55;;;;;;;4.90;2.35;;;;;;;;;;5069842;28;20025;-75
2021/09/18 03:11:22;;;;;;;3.83;2.20;;;;;;;;;;5069123;28;20029;-76
2021/09/18 03:13:48;;;;;;;5.20;2.05;;;;;;;;;;5072393;28;20468;-75
2021/09/18 03:16:14;;;;;;;6.20;3.53;;;;;;;;;;5070478;28;20032;-76
2021/09/18 03:18:39;;;;;;;4.28;2.20;;;;;;;;;;5078145;28;20028;-77
2021/09/18 03:21:05;;;;;;;3.97;2.20;;;;;;;;;;5069394;28;20020;-76
2021/09/18 03:23:31;;;;;;;3.95;2.20;;;;;;;;;;5081870;28;20103;-77
2021/09/18 03:25:57;;;;;;;5.53;2.42;;;;;;;;;;5077592;28;20025;-76
2021/09/18 03:28:22;;;;;;;5.05;2.28;;;;;;;;;;5073218;28;20401;-76
2021/09/18 03:30:48;;;;;;;6.20;1.88;;;;;;;;;;5060074;28;20039;-76
2021/09/18 03:33:13;;;;;;;3.92;2.28;;;;;;;;;;5071346;28;20100;-76
2021/09/18 03:35:39;;;;;;;5.80;2.65;;;;;;;;;;5072415;28;20524;-76
2021/09/18 03:38:05;;;;;;;4.18;2.20;;;;;;;;;;5077584;28;20019;-76
2021/09/18 03:40:30;;;;;;;5.20;2.30;;;;;;;;;;5076242;28;20435;-76
2021/09/18 03:42:56;;;;;;;3.80;2.22;;;;;;;;;;5071644;28;20472;-76
2021/09/18 03:45:21;;;;;;;5.05;2.13;;;;;;;;;;5053843;28;20037;-76
2021/09/18 03:47:47;;;;;;;4.97;2.15;;;;;;;;;;5064160;28;20083;-76
2021/09/18 03:50:13;;;;;;;3.38;1.75;;;;;;;;;;5061900;28;20027;-76
2021/09/18 03:52:38;;;;;;;3.97;2.10;;;;;;;;;;5066949;28;20091;-76
2021/09/18 03:55:05;;;;;;;5.78;2.30;;;;;;;;;;5066016;28;20020;-75
2021/09/18 03:57:31;;;;;;;3.85;2.28;;;;;;;;;;5066024;28;20100;-76
2021/09/18 03:59:56;;;;;;;5.22;2.17;;;;;;;;;;5075386;28;20107;-76
2021/09/18 04:02:22;;;;;;;3.40;2.00;;;;;;;;;;5062416;28;20040;-76
2021/09/18 04:04:47;;;;;;;3.92;2.10;;;;;;;;;;5062378;28;20040;-75
2021/09/18 04:07:13;;;;;;;3.78;2.03;;;;;;;;;;5062076;28;20032;-77
2021/09/18 04:09:40;;;;;;;5.72;2.25;;;;;;;;;;5063919;28;20021;-75
2021/09/18 04:12:06;;;;;;;4.55;2.22;;;;;;;;;;5073120;28;20083;-76
2021/09/18 04:14:31;;;;;;;4.28;2.10;;;;;;;;;;5072199;28;20024;-75
2021/09/18 04:16:57;;;;;;;4.65;2.10;;;;;;;;;;5081523;28;20032;-75
2021/09/18 04:19:23;;;;;;;3.50;2.00;;;;;;;;;;5075442;28;20036;-75
2021/09/18 04:21:48;;;;;;;8.55;2.33;;;;;;;;;;5067381;28;20024;-75
2021/09/18 04:24:14;;;;;;;3.70;2.28;;;;;;;;;;5065083;28;20028;-75
2021/09/18 04:26:40;;;;;;;4.57;2.38;;;;;;;;;;5054838;28;20028;-75
2021/09/18 04:29:05;;;;;;;4.57;2.38;;;;;;;;;;5067996;28;20476;-75
2021/09/18 04:31:31;;;;;;;4.75;2.17;;;;;;;;;;5069389;28;20357;-75
2021/09/18 04:33:57;;;;;;;3.85;2.33;;;;;;;;;;5074933;28;20376;-75
2021/09/18 04:36:22;;;;;;;5.40;2.50;;;;;;;;;;5052391;28;20040;-74
2021/09/18 04:38:48;;;;;;;3.47;2.03;;;;;;;;;;5069075;28;20036;-75
2021/09/18 04:41:14;;;;;;;5.25;2.40;;;;;;;;;;5060230;28;20029;-75
2021/09/18 04:43:39;;;;;;;6.00;2.58;;;;;;;;;;5063691;28;20024;-75
2021/09/18 04:46:05;;;;;;;5.05;2.53;;;;;;;;;;5058675;28;20078;-75
2021/09/18 04:48:31;;;;;;;5.57;2.45;;;;;;;;;;5092589;28;20353;-75
2021/09/18 04:50:56;;;;;;;9.35;2.55;;;;;;;;;;5056258;28;20033;-74
2021/09/18 04:53:22;;;;;;;4.95;2.50;;;;;;;;;;5067205;28;20115;-75
2021/09/18 04:55:48;;;;;;;4.70;2.30;;;;;;;;;;5070675;28;20052;-75
2021/09/18 04:58:15;;;;;;;5.15;2.75;;;;;;;;;;5068689;28;20029;-75
2021/09/18 05:00:40;;;;;;;4.43;2.45;;;;;;;;;;5074319;28;20040;-75
2021/09/18 05:03:07;;;;;;;4.28;2.38;;;;;;;;;;5066737;28;20373;-75
2021/09/18 05:05:33;;;;;;;3.97;2.38;;;;;;;;;;5070665;28;20051;-75
2021/09/18 05:07:58;;;;;;;4.57;2.70;;;;;;;;;;5077064;28;20020;-75
2021/09/18 05:10:24;;;;;;;6.63;2.70;;;;;;;;;;5073572;28;20058;-76
2021/09/18 05:12:49;;;;;;;5.95;2.30;;;;;;;;;;5066034;28;20028;-75
2021/09/18 05:15:15;;;;;;;4.78;2.30;;;;;;;;;;5076628;28;20408;-75
2021/09/18 05:17:41;;;;;;;6.95;2.50;;;;;;;;;;5072445;28;20648;-76
2021/09/18 05:20:07;;;;;;;4.82;2.28;;;;;;;;;;5065199;28;20020;-76
2021/09/18 05:22:33;;;;;;;5.82;2.63;;;;;;;;;;5083926;28;20024;-76
2021/09/18 05:24:58;;;;;;;4.25;2.28;;;;;;;;;;5076991;28;20084;-75
2021/09/18 05:27:24;;;;;;;4.80;2.30;;;;;;;;;;5074068;28;20175;-76
2021/09/18 05:29:50;;;;;;;3.85;2.30;;;;;;;;;;5076960;28;20033;-76
2021/09/18 05:32:16;;;;;;;4.22;2.20;;;;;;;;;;5063398;28;20036;-76
2021/09/18 05:34:42;;;;;;;7.03;2.60;;;;;;;;;;5085783;28;20040;-76
2021/09/18 05:37:07;;;;;;;4.40;2.30;;;;;;;;;;5072950;28;20110;-76
2021/09/18 05:39:33;;;;;;;6.05;2.15;;;;;;;;;;5073262;28;20473;-76
2021/09/18 05:41:59;;;;;;;5.60;2.63;;;;;;;;;;5084356;28;20123;-76
2021/09/18 05:44:26;;;;;;;6.68;2.65;;;;;;;;;;5079078;28;20111;-76
2021/09/18 05:46:51;;;;;;;4.90;2.10;;;;;;;;;;5073574;28;20104;-76
2021/09/18 05:49:17;;;;;;;5.55;2.30;;;;;;;;;;5071841;28;20472;-76
2021/09/18 05:51:43;;;;;;;5.30;2.22;;;;;;;;;;5075612;28;20115;-76
2021/09/18 05:54:08;;;;;;;5.88;2.60;;;;;;;;;;5053818;28;20035;-76
2021/09/18 05:56:34;;;;;;;5.45;2.35;;;;;;;;;;5073838;28;20028;-76
2021/09/18 05:59:03;;;;;;;4.03;1.95;;;;;;;;;;5084160;28;20028;-76
2021/09/18 06:01:30;;;;;;;6.35;2.78;;;;;;;;;;5083020;28;20071;-76
2021/09/18 06:03:56;;;;;;;6.78;2.45;;;;;;;;;;5070806;28;20054;-76
2021/09/18 06:06:21;;;;;;;3.60;2.22;;;;;;;;;;5056307;28;20033;-76
2021/09/18 06:08:50;;;;;;;3.85;2.40;;;;;;;;;;5075423;28;20442;-75
2021/09/18 06:11:16;;;;;;;5.22;2.50;;;;;;;;;;5078611;28;20063;-76
2021/09/18 06:13:42;;;;;;;4.43;2.40;;;;;;;;;;5083288;28;20059;-76
2021/09/18 06:16:08;;;;;;;4.82;2.67;;;;;;;;;;5083905;28;20024;-75
2021/09/18 06:18:33;;;;;;;3.67;2.65;;;;;;;;;;5074513;28;20016;-75
2021/09/18 06:21:00;;;;;;;3.90;2.50;;;;;;;;;;5072803;28;20021;-76
2021/09/18 06:23:29;;;;;;;6.35;2.20;;;;;;;;;;5077380;28;20396;-76
2021/09/18 06:25:54;;;;;;;4.80;2.50;;;;;;;;;;5069641;28;20435;-76
2021/09/18 06:28:20;;;;;;;4.43;2.85;;;;;;;;;;5074816;28;20028;-76
2021/09/18 06:30:47;;;;;;;6.63;2.78;;;;;;;;;;5080890;28;20024;-76
2021/09/18 06:33:12;;;;;;;4.55;2.55;;;;;;;;;;5080984;28;20028;-76
2021/09/18 06:35:38;;;;;;;5.57;2.70;;;;;;;;;;5075169;28;20012;-76
2021/09/18 06:38:04;;;;;;;4.45;2.38;;;;;;;;;;5066691;28;20024;-76
2021/09/18 06:40:29;;;;;;;4.22;2.50;;;;;;;;;;5073877;28;20036;-76
2021/09/18 06:42:55;;;;;;;3.08;1.88;;;;;;;;;;5083977;28;20036;-76
2021/09/18 06:45:21;;;;;;;5.20;2.42;;;;;;;;;;5086870;28;20020;-75
2021/09/18 06:47:46;;;;;;;4.30;2.80;;;;;;;;;;5077814;28;20479;-76
2021/09/18 06:50:13;;;;;;;4.38;2.60;;;;;;;;;;5084425;28;20020;-76
2021/09/18 06:52:39;;;;;;;6.32;2.63;;;;;;;;;;5075706;28;20439;-76
2021/09/18 06:55:06;;;;;;;4.80;2.50;;;;;;;;;;5081940;28;20038;-76
2021/09/18 06:57:34;;;;;;;4.90;2.65;;;;;;;;;;5081825;28;20064;-76
2021/09/18 07:00:00;;;;;;;4.00;2.30;;;;;;;;;;5068848;28;20107;-76
2021/09/18 07:02:25;;;;;;;4.05;2.53;;;;;;;;;;5081511;28;20127;-76
2021/09/18 07:04:51;;;;;;;5.07;2.63;;;;;;;;;;5074143;28;20468;-75
2021/09/18 07:07:17;;;;;;;4.32;2.53;;;;;;;;;;5078909;28;20089;-75
2021/09/18 07:09:42;;;;;;;5.05;2.72;;;;;;;;;;5077817;28;20031;-74
2021/09/18 07:12:08;;;;;;;6.28;2.53;;;;;;;;;;5079719;28;20025;-75
2021/09/18 07:14:33;;;;;;;3.60;2.20;;;;;;;;;;5074476;28;20485;-76
2021/09/18 07:17:00;;;;;;;4.38;2.10;;;;;;;;;;5069421;28;20423;-75
2021/09/18 07:19:25;;;;;;;5.18;2.45;;;;;;;;;;5071925;28;20028;-75
2021/09/18 07:21:51;;;;;;;5.95;2.78;;;;;;;;;;5075623;28;20020;-74
2021/09/18 07:24:16;;;;;;;3.67;2.45;;;;;;;;;;5079809;28;20164;-75
2021/09/18 07:26:42;;;;;;;4.25;2.30;;;;;;;;;;5068726;28;20386;-75
2021/09/18 07:29:07;;;;;;;5.18;2.60;;;;;;;;;;5067074;28;20492;-75
2021/09/18 07:31:33;;;;;;;4.50;2.40;;;;;;;;;;5080663;28;20036;-74
2021/09/18 07:33:58;;;;;;;4.30;2.30;;;;;;;;;;5082234;28;20070;-75
2021/09/18 07:36:24;;;;;;;3.63;2.67;;;;;;;;;;5081428;28;20115;-75
2021/09/18 07:38:49;;;;;;;3.58;2.03;;;;;;;;;;5085348;28;20020;-75
2021/09/18 07:41:16;;;;;;;4.53;2.20;;;;;;;;;;5076962;28;20032;-75
2021/09/18 07:43:44;;;;;;;3.78;2.25;;;;;;;;;;5069833;28;20042;-74
2021/09/18 07:46:10;;;;;;;3.72;2.33;;;;;;;;;;5079422;28;20016;-74
2021/09/18 07:48:35;;;;;;;3.42;2.20;;;;;;;;;;5081567;28;20086;-75
2021/09/18 07:51:02;;;;;;;4.78;2.35;;;;;;;;;;5072850;28;20028;-75
2021/09/18 07:53:28;;;;;;;3.63;2.17;;;;;;;;;;5077179;28;20024;-76
2021/09/18 07:55:53;;;;;;;4.13;2.50;;;;;;;;;;5070460;28;20073;-75
2021/09/18 07:58:19;;;;;;;5.50;2.53;;;;;;;;;;5076279;28;20072;-75
2021/09/18 08:00:45;;;;;;;4.00;2.60;;;;;;;;;;5062764;28;20056;-76
2021/09/18 08:03:11;;;;;;;3.78;2.67;;;;;;;;;;5068839;28;20044;-75
2021/09/18 08:05:37;;;;;;;7.78;2.50;;;;;;;;;;5069035;28;20028;-75
2021/09/18 08:08:03;;;;;;;4.25;2.78;;;;;;;;;;5078722;28;20103;-75
2021/09/18 08:10:29;;;;;;;4.45;2.40;;;;;;;;;;5074507;28;20477;-75
2021/09/18 08:12:55;;;;;;;3.80;2.08;;;;;;;;;;5068053;28;20024;-76
2021/09/18 08:15:20;;;;;;;4.07;2.60;;;;;;;;;;5077519;28;20506;-75
2021/09/18 08:17:47;;;;;;;5.40;2.50;;;;;;;;;;5069946;28;20031;-74
2021/09/18 08:20:14;;;;;;;4.03;2.33;;;;;;;;;;5055549;28;20044;-75
2021/09/18 08:22:40;;;;;;;5.00;2.20;;;;;;;;;;5069028;28;20024;-76
2021/09/18 08:25:07;;;;;;;3.20;2.05;;;;;;;;;;5074385;28;20537;-74
2021/09/18 08:27:33;;;;;;;3.15;1.88;;;;;;;;;;5065287;28;20020;-75
2021/09/18 08:30:01;;;;;;;4.32;2.15;;;;;;;;;;5065404;28;20032;-75
2021/09/18 08:32:26;;;;;;;4.75;2.28;;;;;;;;;;5068827;28;20017;-75
2021/09/18 08:34:52;;;;;;;4.32;2.20;;;;;;;;;;5069342;28;20388;-75
2021/09/18 08:37:18;;;;;;;6.80;2.35;;;;;;;;;;5069897;28;20055;-76
2021/09/18 08:39:43;;;;;;;3.85;2.50;;;;;;;;;;5079498;28;20460;-76
2021/09/18 08:42:09;;;;;;;5.13;2.58;;;;;;;;;;5077445;28;20028;-76
2021/09/18 08:44:36;;;;;;;5.55;2.10;;;;;;;;;;5078029;28;20031;-75
2021/09/18 08:47:02;;;;;;;5.13;2.42;;;;;;;;;;5067263;28;20481;-75
2021/09/18 08:49:31;;;;;;;3.38;1.88;;;;;;;;;;5059556;28;20064;-74
2021/09/18 08:51:56;;;;;;;4.32;1.95;;;;;;;;;;5065640;28;20487;-75
2021/09/18 08:54:22;;;;;;;3.05;2.03;;;;;;;;;;5069841;28;20032;-75
2021/09/18 08:56:48;;;;;;;4.97;1.90;;;;;;;;;;5075493;28;20036;-75
2021/09/18 08:59:13;;;;;;;3.58;2.25;;;;;;;;;;5079135;28;20023;-75
2021/09/18 09:01:39;;;;;;;3.17;1.67;;;;;;;;;;5051843;28;20036;-75
2021/09/18 09:04:07;;;;;;;3.70;2.40;;;;;;;;;;5055870;28;20492;-75
2021/09/18 09:06:47;;;;;;;3.35;2.05;;;;;;;;;;5061283;28;20035;-75
2021/09/18 09:09:14;;;;;;;4.32;2.25;;;;;;;;;;5051712;28;20035;-75
2021/09/18 09:11:51;;;;;;;3.80;2.28;;;;;;;;;;5077947;28;20031;-75
2021/09/18 09:14:17;;;;;;;3.70;2.10;;;;;;;;;;5067767;28;20506;-76
2021/09/18 09:17:06;;;;;;;3.42;2.20;;;;;;;;;;5064352;28;20094;-74
2021/09/18 09:19:41;;;;;;;5.32;2.40;;;;;;;;;;5060567;28;20044;-75
2021/09/18 09:22:07;;;;;;;3.38;2.17;;;;;;;;;;5065778;28;20031;-76
2021/09/18 09:24:33;;;;;;;4.50;2.65;;;;;;;;;;5082074;28;20115;-76
2021/09/18 09:27:14;;;;;;;3.67;2.10;;;;;;;;;;5081017;28;20104;-76
2021/09/18 09:29:57;;;;;;;4.63;2.08;;;;;;;;;;5054667;28;20416;-77
2021/09/18 09:32:39;;;;;;;4.97;2.40;;;;;;;;;;5073294;28;20033;-75
2021/09/18 09:35:08;;;;;;;3.78;2.17;;;;;;;;;;5052742;28;20021;-75
2021/09/18 09:37:34;;;;;;;6.22;2.35;;;;;;;;;;5063146;28;20034;-76
2021/09/18 09:40:03;;;;;;;4.43;1.80;;;;;;;;;;5066991;28;20021;-74
2021/09/18 09:42:34;;;;;;;5.55;2.47;;;;;;;;;;5066259;28;20027;-76
2021/09/18 09:45:13;;;;;;;4.88;2.45;;;;;;;;;;5067515;28;20086;-74
2021/09/18 09:47:39;;;;;;;5.10;2.30;;;;;;;;;;5071325;28;20078;-75
2021/09/18 09:50:05;;;;;;;4.82;2.38;;;;;;;;;;5058215;28;20036;-75
2021/09/18 09:52:33;;;;;;;4.97;2.45;;;;;;;;;;5073122;28;20113;-76
2021/09/18 09:55:14;;;;;;;3.92;2.30;;;;;;;;;;5074772;28;20024;-75
2021/09/18 09:57:41;;;;;;;4.10;2.05;;;;;;;;;;5056799;28;20435;-75
2021/09/18 10:00:15;;;;;;;3.92;2.20;;;;;;;;;;5075235;28;20024;-75
2021/09/18 10:02:41;;;;;;;;;;;;;;;;;;5076872;28;20028;-74
2021/09/18 10:05:10;;;;;;;4.18;2.22;;;;;;;;;;5074612;28;19973;-74
2021/09/18 10:07:36;;;;;;;4.80;2.20;;;;;;;;;;5055513;28;20114;-74
2021/09/18 10:10:04;;;;;;;4.95;2.10;;;;;;;;;;5069685;28;20073;-74
2021/09/18 10:12:29;;;;;;;3.85;2.45;;;;;;;;;;5074598;28;20020;-75
2021/09/18 10:15:01;;;;;;;5.65;2.42;;;;;;;;;;5079219;28;20093;-74
2021/09/18 10:17:32;;;;;;;4.10;2.30;;;;;;;;;;5087210;28;20039;-75
2021/09/18 10:20:13;;;;;;;3.90;2.08;;;;;;;;;;5072721;28;20016;-75
2021/09/18 10:25:33;;;;;;;5.68;2.30;;;;;;;;;;5071454;28;20909;-74
2021/09/18 10:28:11;;;;;;;3.42;2.00;;;;;;;;;;5076080;28;20107;-74
2021/09/18 10:30:55;;;;;;;4.00;2.30;;;;;;;;;;5087055;28;20027;-75
2021/09/18 10:33:32;;;;;;;4.95;2.40;;;;;;;;;;5079421;28;20353;-74
2021/09/18 10:36:07;;;;;;;4.30;2.17;;;;;;;;;;5068501;28;20041;-73
2021/09/18 10:38:35;;;;;;;3.85;2.20;;;;;;;;;;5067236;28;20630;-76
2021/09/18 10:41:03;;;;;;;3.25;2.38;;;;;;;;;;5068686;28;20048;-75
2021/09/18 10:43:35;;;;;;;4.25;2.22;;;;;;;;;;5066390;28;20469;-75
2021/09/18 10:46:01;;;;;;;6.15;2.28;;;;;;;;;;5070991;28;20036;-75
2021/09/18 10:48:33;;;;;;;4.45;2.50;;;;;;;;;;5067474;28;20032;-77
2021/09/18 10:50:59;;;;;;;6.25;2.60;;;;;;;;;;5049878;28;20024;-74
2021/09/18 10:53:25;;;;;;;5.65;2.50;;;;;;;;;;5064882;28;20028;-74
2021/09/18 10:55:50;;;;;;;5.30;2.92;;;;;;;;;;5064154;28;20095;-74
2021/09/18 10:58:16;;;;;;;3.88;2.58;;;;;;;;;;5071424;28;20032;-74
2021/09/18 11:00:50;;;;;;;4.00;2.00;;;;;;;;;;5069471;28;20424;-76
2021/09/18 11:03:35;;;;;;;3.83;2.63;;;;;;;;;;5071599;28;20032;-75
2021/09/18 11:06:00;;;;;;;4.32;2.50;;;;;;;;;;5071985;28;20020;-75
2021/09/18 11:08:29;;;;;;;3.97;2.33;;;;;;;;;;5073282;28;20488;-75
2021/09/18 11:10:58;;;;;;;3.90;2.47;;;;;;;;;;5074914;28;20032;-75
2021/09/18 11:13:32;;;;;;;3.88;2.20;;;;;;;;;;5073406;28;20580;-73
2021/09/18 11:16:19;;;;;;;5.55;2.47;;;;;;;;;;5075472;28;20032;-74
2021/09/18 11:18:56;;;;;;;4.63;2.25;;;;;;;;;;5071668;28;20047;-75
2021/09/18 11:21:27;;;;;;;4.38;2.67;;;;;;;;;;5063997;28;20028;-75
2021/09/18 11:24:23;;;;;;;4.95;2.80;;;;;;;;;;5055188;28;20032;-75
2021/09/18 11:26:53;;;;;;;3.15;2.15;;;;;;;;;;5071183;28;20025;-75
2021/09/18 11:29:28;;;;;;;3.88;2.38;;;;;;;;;;5071313;28;20090;-74
2021/09/18 11:32:19;;;;;;;5.60;2.95;;;;;;;;;;5072511;28;20051;-74
2021/09/18 11:34:54;;;;;;;6.82;2.40;;;;;;;;;;5069517;28;20036;-75
2021/09/18 11:37:29;;;;;;;3.90;2.15;;;;;;;;;;5073065;28;20021;-76
2021/09/18 11:39:58;;;;;;;5.15;2.60;;;;;;;;;;5059076;28;20060;-75
2021/09/18 11:42:26;;;;;;;3.80;2.33;;;;;;;;;;5061425;28;20036;-75
2021/09/18 11:44:59;;;;;;;3.45;2.17;;;;;;;;;;5069302;28;20016;-75
2021/09/18 11:47:32;;;;;;;5.33;2.50;;;;;;;;;;5077903;28;20554;-75
2021/09/18 11:49:58;;;;;;;3.17;2.00;;;;;;;;;;5054056;28;20281;-75
2021/09/18 11:52:35;;;;;;;3.20;1.88;;;;;;;;;;5076056;28;20093;-76
2021/09/18 11:55:02;;;;;;;3.05;1.60;;;;;;;;;;5071970;28;20047;-75
2021/09/18 11:57:28;;;;;;;3.33;1.80;;;;;;;;;;5069221;28;20146;-77
2021/09/18 11:59:53;;;;;;;3.92;2.00;;;;;;;;;;5071674;28;20024;-75
2021/09/18 12:02:31;;;;;;;4.03;1.95;;;;;;;;;;5070820;28;20052;-76
2021/09/18 12:04:57;;;;;;;3.33;2.15;;;;;;;;;;5071561;28;20020;-75
2021/09/18 12:07:23;;;;;;;3.72;1.90;;;;;;;;;;5065344;28;20035;-75
2021/09/18 12:09:49;;;;;;;3.28;2.00;;;;;;;;;;5072679;28;20342;-76
2021/09/18 12:12:14;;;;;;;3.72;1.90;;;;;;;;;;5069800;28;20024;-74
2021/09/18 12:14:40;;;;;;;3.75;1.83;;;;;;;;;;5070082;28;20089;-75
2021/09/18 12:17:17;;;;;;;3.33;1.70;;;;;;;;;;5060416;28;20357;-76
2021/09/18 12:19:44;;;;;;;3.38;1.52;;;;;;;;;;5059856;28;20025;-74
2021/09/18 12:22:11;;;;;;;3.28;1.63;;;;;;;;;;5066829;28;20016;-74
2021/09/18 12:24:39;;;;;;;3.25;1.52;;;;;;;;;;5058225;28;20025;-75
2021/09/18 12:27:23;;;;;;;2.92;1.52;;;;;;;;;;5053661;28;20029;-74
2021/09/18 12:29:58;;;;;;;3.38;1.63;;;;;;;;;;5084200;28;20028;-74
2021/09/18 12:32:24;;;;;;;4.50;1.85;;;;;;;;;;5073186;28;20383;-74
2021/09/18 12:34:50;;;;;;;2.78;1.35;;;;;;;;;;5066755;28;20033;-74
2021/09/18 12:37:17;;;;;;;2.72;1.58;;;;;;;;;;5052738;28;20149;-74
2021/09/18 12:39:43;;;;;;;2.70;1.42;;;;;;;;;;5070171;28;20018;-73
2021/09/18 12:42:10;;;;;;;3.50;1.60;;;;;;;;;;5073785;28;20035;-71
2021/09/18 12:44:37;;;;;;;2.47;1.40;;;;;;;;;;5071324;28;20078;-73
2021/09/18 12:47:03;;;;;;;4.03;1.90;;;;;;;;;;5064914;28;20020;-73
2021/09/18 12:49:33;;;;;;;3.63;1.70;;;;;;;;;;5075039;28;20671;-74
2021/09/18 12:52:02;;;;;;;4.45;1.70;;;;;;;;;;5071447;28;20058;-73
2021/09/18 12:54:28;;;;;;;4.75;2.10;;;;;;;;;;5052196;28;20123;-74
2021/09/18 12:57:04;;;;;;;3.85;2.15;;;;;;;;;;5072087;28;20108;-77
2021/09/18 12:59:39;;;;;;;4.10;1.80;;;;;;;;;;5063835;28;20024;-73
2021/09/18 13:02:05;;;;;;;3.92;2.10;;;;;;;;;;5071136;28;20044;-73
2021/09/18 13:04:32;;;;;;;3.05;1.70;;;;;;;;;;5064570;28;20039;-73
2021/09/18 13:07:09;;;;;;;4.32;2.20;;;;;;;;;;5079476;28;20118;-76
2021/09/18 13:09:38;;;;;;;6.53;2.20;;;;;;;;;;5060702;28;20024;-76
2021/09/18 13:12:12;;;;;;;4.72;2.00;;;;;;;;;;5073006;28;20372;-74
2021/09/18 13:14:41;;;;;;;3.60;1.90;;;;;;;;;;5071820;28;20444;-75
2021/09/18 13:17:10;;;;;;;3.00;1.83;;;;;;;;;;5067098;28;20120;-75
2021/09/18 13:19:58;;;;;;;3.67;1.77;;;;;;;;;;5064926;28;20025;-75
2021/09/18 13:22:30;;;;;;;3.78;1.58;;;;;;;;;;5069715;28;20032;-76
2021/09/18 13:24:58;;;;;;;3.53;1.70;;;;;;;;;;5079757;28;20398;-76
2021/09/18 13:27:26;;;;;;;3.40;1.60;;;;;;;;;;5092273;28;20031;-75
2021/09/18 13:29:53;;;;;;;3.70;1.48;;;;;;;;;;5084467;28;20024;-76
2021/09/18 13:32:19;;;;;;;2.63;1.35;;;;;;;;;;5079021;28;20070;-73
2021/09/18 13:34:45;;;;;;;3.67;1.50;;;;;;;;;;5085997;28;20387;-74
2021/09/18 13:37:10;;;;;;;3.33;1.90;;;;;;;;;;5073804;28;20086;-75
2021/09/18 13:39:37;;;;;;;3.15;1.80;;;;;;;;;;5073245;28;20100;-75
2021/09/18 13:42:02;;;;;;;2.72;1.50;;;;;;;;;;5078627;28;20379;-74
2021/09/18 13:44:28;;;;;;;3.13;1.67;;;;;;;;;;5079848;28;20039;-73
2021/09/18 13:46:54;;;;;;;2.60;1.30;;;;;;;;;;5071601;28;20025;-75
2021/09/18 13:49:20;;;;;;;3.50;1.92;;;;;;;;;;5064245;28;20029;-75
2021/09/18 13:51:46;;;;;;;2.42;1.52;;;;;;;;;;5073463;28;20363;-75
2021/09/18 13:54:12;;;;;;;3.97;1.73;;;;;;;;;;5072477;28;20022;-74
2021/09/18 13:56:39;;;;;;;5.30;1.52;;;;;;;;;;5067389;28;20155;-74
2021/09/18 13:59:05;;;;;;;2.33;1.38;;;;;;;;;;5061600;28;20021;-75
2021/09/18 14:01:31;;;;;;;3.97;1.65;;;;;;;;;;5054133;28;20048;-73
2021/09/18 14:03:59;;;;;;;2.78;1.50;;;;;;;;;;5084382;28;20369;-73
2021/09/18 14:06:25;;;;;;;2.85;1.38;;;;;;;;;;5044068;28;20028;-75
2021/09/18 14:08:51;;;;;;;2.75;1.60;;;;;;;;;;5068844;28;20021;-75
2021/09/18 14:11:17;;;;;;;8.77;1.30;;;;;;;;;;5054497;28;20036;-78
2021/09/18 14:13:43;;;;;;;5.72;1.73;;;;;;;;;;5067850;28;20024;-77
2021/09/18 14:16:08;;;;;;;3.22;1.70;;;;;;;;;;5056349;28;20082;-76
2021/09/18 14:18:34;;;;;;;2.60;1.40;;;;;;;;;;5074116;28;20020;-77
2021/09/18 14:21:00;;;;;;;4.70;1.65;;;;;;;;;;5055403;28;20218;-76
2021/09/18 14:23:25;;;;;;;4.53;1.83;;;;;;;;;;5055832;28;20032;-74
2021/09/18 14:25:52;;;;;;;3.13;1.40;;;;;;;;;;5073723;28;20036;-76
2021/09/18 14:28:18;;;;;;;1.48;1.02;;;;;;;;;;5055981;28;20472;-76
2021/09/18 14:30:45;;;;;;;4.80;1.48;;;;;;;;;;5073410;28;20025;-75
2021/09/18 14:33:11;;;;;;;3.58;1.40;;;;;;;;;;5079212;28;20055;-72
2021/09/18 14:35:37;;;;;;;3.92;1.60;;;;;;;;;;5080436;28;20048;-74
2021/09/18 14:38:03;;;;;;;3.45;1.38;;;;;;;;;;5059979;28;20031;-73
2021/09/18 14:40:33;;;;;;;3.33;1.30;;;;;;;;;;5051109;28;20040;-73
2021/09/18 14:42:59;;;;;;;2.30;1.30;;;;;;;;;;5053077;28;20392;-74
2021/09/18 14:45:25;;;;;;;1.88;1.23;;;;;;;;;;5055932;28;20020;-73
2021/09/18 14:47:51;;;;;;;3.28;1.15;;;;;;;;;;5050083;28;20028;-75